createdAt,value
2018-05-02T00:00:08.232Z,0.00
2018-05-02T00:01:08.239Z,0.00
2018-05-02T00:02:08.219Z,0.00
2018-05-02T00:03:08.214Z,0.00
2018-05-02T00:04:08.207Z,0.00
2018-05-02T00:05:08.956Z,0.00
2018-05-02T00:06:08.195Z,0.00
2018-05-02T00:07:08.189Z,0.00
2018-05-02T00:08:08.178Z,0.00
2018-05-02T00:09:08.171Z,0.00
2018-05-02T00:10:08.165Z,0.00
2018-05-02T00:11:08.161Z,0.00
2018-05-02T00:12:08.155Z,0.00
2018-05-02T00:13:08.149Z,0.00
2018-05-02T00:14:08.144Z,0.00
2018-05-02T00:15:08.133Z,0.00
2018-05-02T00:16:08.126Z,0.00
2018-05-02T00:17:08.121Z,0.00
2018-05-02T00:18:08.123Z,0.00
2018-05-02T00:19:08.113Z,0.00
2018-05-02T00:20:08.107Z,0.00
2018-05-02T00:21:08.096Z,0.00
2018-05-02T00:22:08.092Z,0.00
2018-05-02T00:23:08.085Z,0.00
2018-05-02T00:24:08.075Z,0.00
2018-05-02T00:25:08.070Z,0.00
2018-05-02T00:26:08.067Z,0.00
2018-05-02T00:27:08.062Z,0.00
2018-05-02T00:28:08.050Z,0.00
2018-05-02T00:29:08.046Z,0.00
2018-05-02T00:30:08.070Z,0.00
2018-05-02T00:31:08.032Z,0.00
2018-05-02T00:32:08.025Z,0.00
2018-05-02T00:33:08.020Z,0.00
2018-05-02T00:34:08.074Z,0.00
2018-05-02T00:35:08.007Z,0.00
2018-05-02T00:36:08.000Z,0.00
2018-05-02T00:37:07.993Z,0.00
2018-05-02T00:38:07.988Z,0.00
2018-05-02T00:39:07.979Z,0.00
2018-05-02T00:40:07.972Z,0.00
2018-05-02T00:41:07.969Z,0.00
2018-05-02T00:42:07.964Z,0.00
2018-05-02T00:43:07.955Z,0.00
2018-05-02T00:44:07.952Z,0.00
2018-05-02T00:45:07.940Z,0.00
2018-05-02T00:46:07.938Z,0.00
2018-05-02T00:47:07.933Z,0.00
2018-05-02T00:48:07.923Z,0.00
2018-05-02T00:49:07.920Z,0.00
2018-05-02T00:50:07.915Z,0.00
2018-05-02T00:51:07.905Z,0.00
2018-05-02T00:52:07.892Z,0.00
2018-05-02T00:53:07.892Z,0.00
2018-05-02T00:54:07.886Z,0.00
2018-05-02T00:55:07.883Z,0.00
2018-05-02T00:56:07.876Z,0.00
2018-05-02T00:57:07.870Z,0.00
2018-05-02T00:58:07.860Z,0.00
2018-05-02T00:59:07.850Z,0.00
2018-05-02T01:00:07.845Z,0.00
2018-05-02T01:01:07.840Z,0.00
2018-05-02T01:02:07.834Z,0.00
2018-05-02T01:03:07.828Z,0.00
2018-05-02T01:04:07.823Z,0.00
2018-05-02T01:05:07.818Z,0.00
2018-05-02T01:06:07.812Z,0.00
2018-05-02T01:07:07.804Z,0.00
2018-05-02T01:08:07.796Z,0.00
2018-05-02T01:09:07.790Z,0.00
2018-05-02T01:10:07.784Z,0.00
2018-05-02T01:11:07.782Z,0.00
2018-05-02T01:12:07.771Z,0.00
2018-05-02T01:13:07.765Z,0.00
2018-05-02T01:14:07.773Z,0.00
2018-05-02T01:15:07.751Z,0.00
2018-05-02T01:16:07.749Z,0.00
2018-05-02T01:17:07.739Z,0.00
2018-05-02T01:18:07.734Z,0.00
2018-05-02T01:19:07.726Z,0.00
2018-05-02T01:20:07.725Z,0.00
2018-05-02T01:21:07.719Z,0.00
2018-05-02T01:22:07.710Z,0.00
2018-05-02T01:23:07.698Z,0.00
2018-05-02T01:24:07.689Z,0.00
2018-05-02T01:25:07.693Z,0.00
2018-05-02T01:26:07.679Z,0.00
2018-05-02T01:27:07.677Z,0.00
2018-05-02T01:28:07.672Z,0.00
2018-05-02T01:29:07.682Z,0.00
2018-05-02T01:30:07.656Z,0.00
2018-05-02T01:31:07.649Z,0.00
2018-05-02T01:32:07.644Z,0.00
2018-05-02T01:33:07.638Z,0.00
2018-05-02T01:34:07.632Z,0.00
2018-05-02T01:35:07.625Z,0.00
2018-05-02T01:36:07.618Z,0.00
2018-05-02T01:37:07.612Z,0.00
2018-05-02T01:38:07.612Z,0.00
2018-05-02T01:39:07.600Z,0.00
2018-05-02T01:40:07.594Z,0.00
2018-05-02T01:41:07.584Z,0.00
2018-05-02T01:42:07.581Z,0.00
2018-05-02T01:43:07.577Z,0.00
2018-05-02T01:44:07.577Z,0.00
2018-05-02T01:45:07.564Z,0.00
2018-05-02T01:46:07.555Z,0.00
2018-05-02T01:47:07.547Z,0.00
2018-05-02T01:48:07.542Z,0.00
2018-05-02T01:49:07.537Z,0.00
2018-05-02T01:50:07.530Z,0.00
2018-05-02T01:51:07.526Z,0.00
2018-05-02T01:52:07.517Z,0.00
2018-05-02T01:53:07.514Z,0.00
2018-05-02T01:54:07.502Z,0.00
2018-05-02T01:55:07.502Z,0.00
2018-05-02T01:56:07.491Z,0.00
2018-05-02T01:57:07.486Z,0.00
2018-05-02T01:58:07.486Z,0.00
2018-05-02T01:59:07.475Z,0.00
2018-05-02T02:00:07.467Z,0.00
2018-05-02T02:01:07.463Z,0.00
2018-05-02T02:02:07.450Z,0.00
2018-05-02T02:03:07.446Z,0.00
2018-05-02T02:04:07.441Z,0.00
2018-05-02T02:05:07.439Z,0.00
2018-05-02T02:06:07.442Z,0.00
2018-05-02T02:07:07.422Z,0.00
2018-05-02T02:08:07.414Z,0.00
2018-05-02T02:09:07.411Z,0.00
2018-05-02T02:10:07.403Z,0.00
2018-05-02T02:11:07.399Z,0.00
2018-05-02T02:12:07.390Z,0.00
2018-05-02T02:13:07.390Z,0.00
2018-05-02T02:14:07.379Z,0.00
2018-05-02T02:15:07.373Z,0.00
2018-05-02T02:16:07.366Z,0.00
2018-05-02T02:17:07.356Z,0.00
2018-05-02T02:18:07.351Z,0.00
2018-05-02T02:19:07.353Z,0.00
2018-05-02T02:20:07.342Z,0.00
2018-05-02T02:21:07.353Z,0.00
2018-05-02T02:22:07.329Z,0.00
2018-05-02T02:23:07.408Z,0.00
2018-05-02T02:24:07.316Z,0.00
2018-05-02T02:25:07.312Z,0.00
2018-05-02T02:26:07.303Z,0.00
2018-05-02T02:27:07.396Z,0.00
2018-05-02T02:28:07.293Z,0.00
2018-05-02T02:29:07.332Z,0.00
2018-05-02T02:30:07.277Z,0.00
2018-05-02T02:31:07.293Z,0.00
2018-05-02T02:32:07.262Z,0.00
2018-05-02T02:33:07.280Z,0.00
2018-05-02T02:34:07.336Z,0.00
2018-05-02T02:35:07.291Z,0.00
2018-05-02T02:36:07.236Z,0.00
2018-05-02T02:37:07.251Z,0.00
2018-05-02T02:38:07.227Z,0.00
2018-05-02T02:39:07.252Z,0.00
2018-05-02T02:40:07.214Z,0.00
2018-05-02T02:41:07.210Z,0.00
2018-05-02T02:42:07.204Z,0.00
2018-05-02T02:43:07.200Z,0.00
2018-05-02T02:44:07.186Z,0.00
2018-05-02T02:45:07.180Z,0.00
2018-05-02T02:46:07.174Z,0.00
2018-05-02T02:47:07.174Z,0.00
2018-05-02T02:48:07.158Z,0.00
2018-05-02T02:49:07.155Z,0.00
2018-05-02T02:50:07.155Z,0.00
2018-05-02T02:51:07.145Z,0.00
2018-05-02T02:52:07.145Z,0.00
2018-05-02T02:53:07.130Z,0.00
2018-05-02T02:54:07.126Z,0.00
2018-05-02T02:55:07.117Z,0.00
2018-05-02T02:56:07.110Z,0.00
2018-05-02T02:57:07.102Z,0.00
2018-05-02T02:58:07.097Z,0.00
2018-05-02T02:59:07.081Z,0.00
2018-05-02T03:00:07.079Z,0.00
2018-05-02T03:01:07.079Z,0.00
2018-05-02T03:02:07.071Z,0.00
2018-05-02T03:03:07.067Z,0.00
2018-05-02T03:04:07.075Z,0.00
2018-05-02T03:05:07.050Z,0.00
2018-05-02T03:06:07.048Z,0.00
2018-05-02T03:07:07.038Z,0.00
2018-05-02T03:08:07.032Z,0.00
2018-05-02T03:09:07.027Z,0.00
2018-05-02T03:10:07.020Z,0.00
2018-05-02T03:11:07.020Z,0.00
2018-05-02T03:12:07.007Z,0.00
2018-05-02T03:13:07.001Z,0.00
2018-05-02T03:14:06.994Z,0.00
2018-05-02T03:15:06.983Z,0.00
2018-05-02T03:16:06.978Z,0.00
2018-05-02T03:17:06.975Z,0.00
2018-05-02T03:18:06.974Z,0.00
2018-05-02T03:19:06.970Z,0.00
2018-05-02T03:20:06.959Z,0.00
2018-05-02T03:21:06.948Z,0.00
2018-05-02T03:22:06.940Z,0.00
2018-05-02T03:23:06.934Z,0.00
2018-05-02T03:24:06.931Z,0.00
2018-05-02T03:25:06.921Z,0.00
2018-05-02T03:26:06.921Z,0.00
2018-05-02T03:27:06.919Z,0.00
2018-05-02T03:28:06.911Z,0.00
2018-05-02T03:29:06.898Z,0.00
2018-05-02T03:30:06.891Z,0.00
2018-05-02T03:31:06.890Z,0.00
2018-05-02T03:32:06.879Z,0.00
2018-05-02T03:33:06.873Z,0.00
2018-05-02T03:34:06.864Z,0.00
2018-05-02T03:35:06.859Z,0.00
2018-05-02T03:36:06.849Z,0.00
2018-05-02T03:37:06.846Z,0.00
2018-05-02T03:38:06.839Z,0.00
2018-05-02T03:39:06.834Z,0.00
2018-05-02T03:40:06.827Z,0.00
2018-05-02T03:41:06.828Z,0.00
2018-05-02T03:42:06.814Z,0.00
2018-05-02T03:43:06.806Z,0.00
2018-05-02T03:44:06.800Z,0.00
2018-05-02T03:45:06.804Z,0.00
2018-05-02T03:46:07.064Z,0.00
2018-05-02T03:47:06.779Z,0.00
2018-05-02T03:48:06.778Z,0.00
2018-05-02T03:49:06.777Z,0.00
2018-05-02T03:50:06.762Z,0.00
2018-05-02T03:51:06.755Z,0.00
2018-05-02T03:52:06.747Z,0.00
2018-05-02T03:53:06.746Z,0.00
2018-05-02T03:54:06.737Z,0.00
2018-05-02T03:55:06.730Z,0.00
2018-05-02T03:56:06.728Z,0.00
2018-05-02T03:57:06.717Z,0.00
2018-05-02T03:58:06.708Z,0.00
2018-05-02T03:59:06.703Z,0.00
2018-05-02T04:00:06.693Z,0.00
2018-05-02T04:01:06.690Z,0.00
2018-05-02T04:02:06.680Z,0.00
2018-05-02T04:03:06.671Z,0.00
2018-05-02T04:04:06.671Z,0.00
2018-05-02T04:05:06.658Z,0.00
2018-05-02T04:06:06.648Z,0.00
2018-05-02T04:07:06.643Z,0.00
2018-05-02T04:08:06.643Z,0.00
2018-05-02T04:09:06.628Z,0.00
2018-05-02T04:10:06.620Z,0.00
2018-05-02T04:11:06.614Z,0.00
2018-05-02T04:12:06.605Z,0.00
2018-05-02T04:13:06.599Z,0.00
2018-05-02T04:14:06.595Z,0.00
2018-05-02T04:15:06.586Z,0.00
2018-05-02T04:16:06.573Z,0.00
2018-05-02T04:17:06.568Z,0.00
2018-05-02T04:18:06.560Z,0.00
2018-05-02T04:19:06.554Z,0.00
2018-05-02T04:20:06.545Z,0.00
2018-05-02T04:21:06.535Z,0.00
2018-05-02T04:22:06.530Z,0.00
2018-05-02T04:23:06.519Z,0.00
2018-05-02T04:24:06.516Z,0.00
2018-05-02T04:25:06.504Z,0.00
2018-05-02T04:26:06.562Z,0.00
2018-05-02T04:27:06.495Z,0.00
2018-05-02T04:28:06.486Z,0.00
2018-05-02T04:29:06.475Z,0.00
2018-05-02T04:30:06.469Z,0.00
2018-05-02T04:31:06.456Z,0.00
2018-05-02T04:32:06.451Z,0.00
2018-05-02T04:33:06.448Z,0.00
2018-05-02T04:34:06.434Z,0.00
2018-05-02T04:35:06.427Z,0.00
2018-05-02T04:36:06.418Z,0.00
2018-05-02T04:37:06.410Z,0.00
2018-05-02T04:38:06.403Z,0.00
2018-05-02T04:39:06.397Z,0.00
2018-05-02T04:40:06.390Z,0.00
2018-05-02T04:41:06.387Z,0.00
2018-05-02T04:42:06.372Z,0.00
2018-05-02T04:43:06.363Z,0.00
2018-05-02T04:44:06.356Z,0.00
2018-05-02T04:45:06.350Z,0.00
2018-05-02T04:46:06.340Z,0.00
2018-05-02T04:47:06.334Z,0.00
2018-05-02T04:48:06.326Z,0.00
2018-05-02T04:49:06.324Z,0.00
2018-05-02T04:50:06.308Z,5.63
2018-05-02T04:51:06.300Z,5.63
2018-05-02T04:52:06.294Z,5.63
2018-05-02T04:53:06.292Z,5.63
2018-05-02T04:54:06.278Z,5.63
2018-05-02T04:55:06.300Z,5.63
2018-05-02T04:56:06.285Z,5.63
2018-05-02T04:57:06.254Z,5.63
2018-05-02T04:58:06.253Z,5.63
2018-05-02T04:59:06.239Z,5.63
2018-05-02T05:00:06.235Z,5.63
2018-05-02T05:01:06.227Z,5.63
2018-05-02T05:02:06.217Z,5.63
2018-05-02T05:03:06.207Z,5.63
2018-05-02T05:04:06.226Z,5.63
2018-05-02T05:05:06.192Z,5.63
2018-05-02T05:06:06.186Z,5.63
2018-05-02T05:07:06.196Z,5.63
2018-05-02T05:08:06.170Z,5.63
2018-05-02T05:09:06.159Z,11.25
2018-05-02T05:10:06.152Z,11.25
2018-05-02T05:11:06.149Z,11.25
2018-05-02T05:12:06.136Z,11.25
2018-05-02T05:13:06.127Z,11.25
2018-05-02T05:14:06.132Z,11.25
2018-05-02T05:15:06.115Z,11.25
2018-05-02T05:16:06.106Z,11.25
2018-05-02T05:17:06.110Z,11.25
2018-05-02T05:18:06.098Z,11.25
2018-05-02T05:19:06.082Z,11.25
2018-05-02T05:20:06.076Z,11.25
2018-05-02T05:21:06.067Z,11.25
2018-05-02T05:22:06.060Z,11.25
2018-05-02T05:23:06.056Z,11.25
2018-05-02T05:24:06.042Z,11.25
2018-05-02T05:25:06.034Z,16.88
2018-05-02T05:26:06.027Z,16.88
2018-05-02T05:27:06.019Z,16.88
2018-05-02T05:28:06.012Z,16.88
2018-05-02T05:29:06.004Z,16.88
2018-05-02T05:30:05.995Z,16.88
2018-05-02T05:31:05.987Z,16.88
2018-05-02T05:32:05.982Z,22.50
2018-05-02T05:33:05.973Z,22.50
2018-05-02T05:34:05.966Z,16.88
2018-05-02T05:35:05.956Z,16.88
2018-05-02T05:36:05.948Z,16.88
2018-05-02T05:37:05.941Z,16.88
2018-05-02T05:38:05.934Z,16.88
2018-05-02T05:39:05.924Z,16.88
2018-05-02T05:40:05.927Z,16.88
2018-05-02T05:41:05.910Z,22.50
2018-05-02T05:42:05.901Z,22.50
2018-05-02T05:43:05.892Z,22.50
2018-05-02T05:44:05.885Z,22.50
2018-05-02T05:45:05.878Z,22.50
2018-05-02T05:46:05.867Z,22.50
2018-05-02T05:47:05.860Z,22.50
2018-05-02T05:48:05.875Z,28.13
2018-05-02T05:49:05.846Z,28.13
2018-05-02T05:50:05.840Z,22.50
2018-05-02T05:51:05.829Z,22.50
2018-05-02T05:52:05.825Z,22.50
2018-05-02T05:53:05.814Z,22.50
2018-05-02T05:54:05.866Z,22.50
2018-05-02T05:55:05.800Z,28.13
2018-05-02T05:56:05.789Z,28.13
2018-05-02T05:57:05.785Z,33.75
2018-05-02T05:58:05.773Z,28.13
2018-05-02T05:59:05.767Z,33.75
2018-05-02T06:00:05.771Z,33.75
2018-05-02T06:01:05.751Z,33.75
2018-05-02T06:02:05.743Z,33.75
2018-05-02T06:03:05.735Z,33.75
2018-05-02T06:04:05.729Z,33.75
2018-05-02T06:05:05.781Z,33.75
2018-05-02T06:06:05.716Z,33.75
2018-05-02T06:07:05.705Z,33.75
2018-05-02T06:08:05.696Z,33.75
2018-05-02T06:09:05.689Z,39.38
2018-05-02T06:10:05.682Z,39.38
2018-05-02T06:11:05.673Z,39.38
2018-05-02T06:12:05.668Z,39.38
2018-05-02T06:13:05.666Z,39.38
2018-05-02T06:14:05.649Z,39.38
2018-05-02T06:15:05.646Z,45.00
2018-05-02T06:16:05.636Z,45.00
2018-05-02T06:17:05.631Z,45.00
2018-05-02T06:18:05.620Z,45.00
2018-05-02T06:19:05.626Z,39.38
2018-05-02T06:20:05.606Z,45.00
2018-05-02T06:21:05.598Z,45.00
2018-05-02T06:22:05.591Z,50.63
2018-05-02T06:23:05.579Z,50.63
2018-05-02T06:24:05.572Z,50.63
2018-05-02T06:25:05.572Z,45.00
2018-05-02T06:26:05.634Z,50.63
2018-05-02T06:27:05.549Z,39.38
2018-05-02T06:28:05.541Z,45.00
2018-05-02T06:29:05.536Z,50.63
2018-05-02T06:30:05.526Z,50.63
2018-05-02T06:31:05.518Z,50.63
2018-05-02T06:32:05.511Z,56.25
2018-05-02T06:33:05.507Z,56.25
2018-05-02T06:34:05.499Z,56.25
2018-05-02T06:35:05.487Z,56.25
2018-05-02T06:36:05.479Z,50.63
2018-05-02T06:37:05.475Z,50.63
2018-05-02T06:38:05.469Z,45.00
2018-05-02T06:39:05.457Z,39.38
2018-05-02T06:40:05.450Z,39.38
2018-05-02T06:41:05.443Z,45.00
2018-05-02T06:42:05.435Z,39.38
2018-05-02T06:43:05.427Z,39.38
2018-05-02T06:44:05.419Z,39.38
2018-05-02T06:45:05.412Z,39.38
2018-05-02T06:46:05.404Z,33.75
2018-05-02T06:47:05.397Z,33.75
2018-05-02T06:48:05.390Z,39.38
2018-05-02T06:49:05.381Z,39.38
2018-05-02T06:50:05.378Z,39.38
2018-05-02T06:51:05.366Z,33.75
2018-05-02T06:52:05.358Z,33.75
2018-05-02T06:53:05.351Z,33.75
2018-05-02T06:54:05.355Z,33.75
2018-05-02T06:55:05.336Z,33.75
2018-05-02T06:56:05.328Z,33.75
2018-05-02T06:57:05.324Z,33.75
2018-05-02T06:58:05.314Z,33.75
2018-05-02T06:59:05.305Z,33.75
2018-05-02T07:00:05.297Z,39.38
2018-05-02T07:01:05.303Z,39.38
2018-05-02T07:02:05.283Z,39.38
2018-05-02T07:03:05.273Z,39.38
2018-05-02T07:04:05.266Z,39.38
2018-05-02T07:05:05.258Z,39.38
2018-05-02T07:06:05.251Z,39.38
2018-05-02T07:07:05.314Z,39.38
2018-05-02T07:08:05.241Z,39.38
2018-05-02T07:09:05.230Z,39.38
2018-05-02T07:10:05.229Z,39.38
2018-05-02T07:11:05.219Z,39.38
2018-05-02T07:12:05.206Z,50.63
2018-05-02T07:13:05.197Z,56.25
2018-05-02T07:14:05.192Z,61.88
2018-05-02T07:15:05.186Z,45.00
2018-05-02T07:16:05.179Z,67.50
2018-05-02T07:17:05.167Z,56.25
2018-05-02T07:18:05.164Z,50.63
2018-05-02T07:19:05.153Z,50.63
2018-05-02T07:20:05.146Z,50.63
2018-05-02T07:21:05.138Z,50.63
2018-05-02T07:22:05.134Z,50.63
2018-05-02T07:23:05.122Z,56.25
2018-05-02T07:24:05.124Z,50.63
2018-05-02T07:25:05.108Z,56.25
2018-05-02T07:26:05.100Z,61.88
2018-05-02T07:27:05.090Z,61.88
2018-05-02T07:28:05.082Z,50.63
2018-05-02T07:29:05.079Z,61.88
2018-05-02T07:30:05.068Z,50.63
2018-05-02T07:31:05.061Z,56.25
2018-05-02T07:32:05.053Z,56.25
2018-05-02T07:33:05.187Z,56.25
2018-05-02T07:34:05.040Z,50.63
2018-05-02T07:35:05.031Z,50.63
2018-05-02T07:36:05.023Z,56.25
2018-05-02T07:37:05.021Z,56.25
2018-05-02T07:38:05.011Z,56.25
2018-05-02T07:39:05.001Z,50.63
2018-05-02T07:40:04.991Z,61.88
2018-05-02T07:41:04.983Z,56.25
2018-05-02T07:42:04.989Z,61.88
2018-05-02T07:43:04.968Z,73.13
2018-05-02T07:44:04.963Z,73.13
2018-05-02T07:45:04.956Z,61.88
2018-05-02T07:46:04.946Z,61.88
2018-05-02T07:47:04.939Z,73.13
2018-05-02T07:48:04.934Z,84.38
2018-05-02T07:49:04.933Z,78.75
2018-05-02T07:50:04.918Z,73.13
2018-05-02T07:51:04.911Z,61.88
2018-05-02T07:52:04.905Z,73.13
2018-05-02T07:53:04.900Z,61.88
2018-05-02T07:54:04.890Z,73.13
2018-05-02T07:55:04.887Z,73.13
2018-05-02T07:56:04.873Z,67.50
2018-05-02T07:57:04.905Z,67.50
2018-05-02T07:58:04.858Z,56.25
2018-05-02T07:59:04.849Z,73.13
2018-05-02T08:00:04.843Z,67.50
2018-05-02T08:01:04.840Z,67.50
2018-05-02T08:02:04.827Z,56.25
2018-05-02T08:03:04.822Z,61.88
2018-05-02T08:04:04.815Z,73.13
2018-05-02T08:05:04.808Z,84.38
2018-05-02T08:06:04.798Z,61.88
2018-05-02T08:07:04.793Z,61.88
2018-05-02T08:08:04.786Z,73.13
2018-05-02T08:09:04.792Z,56.25
2018-05-02T08:10:04.769Z,56.25
2018-05-02T08:11:04.787Z,56.25
2018-05-02T08:12:04.754Z,61.88
2018-05-02T08:13:04.747Z,67.50
2018-05-02T08:14:04.742Z,67.50
2018-05-02T08:15:04.734Z,61.88
2018-05-02T08:16:04.729Z,61.88
2018-05-02T08:17:04.719Z,56.25
2018-05-02T08:18:04.716Z,61.88
2018-05-02T08:19:04.706Z,73.13
2018-05-02T08:20:04.696Z,67.50
2018-05-02T08:21:04.690Z,61.88
2018-05-02T08:22:04.700Z,67.50
2018-05-02T08:23:04.674Z,73.13
2018-05-02T08:24:04.667Z,90.00
2018-05-02T08:25:04.658Z,90.00
2018-05-02T08:26:04.654Z,73.13
2018-05-02T08:27:04.644Z,61.88
2018-05-02T08:28:04.643Z,61.88
2018-05-02T08:29:04.632Z,67.50
2018-05-02T08:30:04.626Z,61.88
2018-05-02T08:31:04.615Z,61.88
2018-05-02T08:32:04.608Z,61.88
2018-05-02T08:33:04.600Z,73.13
2018-05-02T08:34:04.598Z,67.50
2018-05-02T08:35:04.587Z,78.75
2018-05-02T08:36:04.579Z,67.50
2018-05-02T08:37:04.572Z,78.75
2018-05-02T08:38:04.566Z,61.88
2018-05-02T08:39:04.560Z,56.25
2018-05-02T08:40:04.549Z,50.63
2018-05-02T08:41:04.546Z,56.25
2018-05-02T08:42:04.533Z,67.50
2018-05-02T08:43:04.527Z,61.88
2018-05-02T08:44:04.519Z,67.50
2018-05-02T08:45:04.516Z,61.88
2018-05-02T08:46:04.505Z,56.25
2018-05-02T08:47:04.497Z,50.63
2018-05-02T08:48:04.500Z,50.63
2018-05-02T08:49:04.487Z,56.25
2018-05-02T08:50:04.481Z,56.25
2018-05-02T08:51:04.468Z,61.88
2018-05-02T08:52:04.464Z,67.50
2018-05-02T08:53:04.455Z,67.50
2018-05-02T08:54:04.449Z,67.50
2018-05-02T08:55:04.441Z,56.25
2018-05-02T08:56:04.433Z,56.25
2018-05-02T08:57:04.428Z,56.25
2018-05-02T08:58:04.419Z,56.25
2018-05-02T08:59:04.411Z,50.63
2018-05-02T09:00:04.403Z,50.63
2018-05-02T09:01:04.402Z,56.25
2018-05-02T09:02:04.398Z,61.88
2018-05-02T09:03:04.383Z,56.25
2018-05-02T09:04:04.378Z,50.63
2018-05-02T09:05:04.367Z,50.63
2018-05-02T09:06:04.362Z,56.25
2018-05-02T09:07:04.355Z,56.25
2018-05-02T09:08:04.349Z,67.50
2018-05-02T09:09:04.343Z,61.88
2018-05-02T09:10:04.332Z,56.25
2018-05-02T09:11:04.324Z,61.88
2018-05-02T09:12:04.319Z,56.25
2018-05-02T09:13:04.307Z,56.25
2018-05-02T09:14:04.302Z,50.63
2018-05-02T09:15:04.294Z,56.25
2018-05-02T09:16:04.286Z,56.25
2018-05-02T09:17:04.280Z,56.25
2018-05-02T09:18:04.275Z,56.25
2018-05-02T09:19:04.273Z,61.88
2018-05-02T09:20:04.259Z,73.13
2018-05-02T09:21:04.251Z,78.75
2018-05-02T09:22:04.243Z,61.88
2018-05-02T09:23:04.239Z,61.88
2018-05-02T09:24:04.231Z,56.25
2018-05-02T09:25:04.222Z,56.25
2018-05-02T09:26:04.221Z,61.88
2018-05-02T09:27:04.208Z,61.88
2018-05-02T09:28:04.206Z,50.63
2018-05-02T09:29:04.192Z,50.63
2018-05-02T09:30:04.187Z,50.63
2018-05-02T09:31:04.179Z,50.63
2018-05-02T09:32:04.170Z,56.25
2018-05-02T09:33:04.165Z,67.50
2018-05-02T09:34:04.159Z,56.25
2018-05-02T09:35:04.150Z,56.25
2018-05-02T09:36:04.145Z,56.25
2018-05-02T09:37:04.134Z,56.25
2018-05-02T09:38:04.128Z,50.63
2018-05-02T09:39:04.120Z,50.63
2018-05-02T09:40:04.112Z,50.63
2018-05-02T09:41:04.114Z,45.00
2018-05-02T09:42:04.105Z,50.63
2018-05-02T09:43:04.089Z,50.63
2018-05-02T09:44:04.101Z,56.25
2018-05-02T09:45:04.079Z,61.88
2018-05-02T09:46:04.071Z,61.88
2018-05-02T09:47:04.062Z,56.25
2018-05-02T09:48:04.063Z,61.88
2018-05-02T09:49:04.050Z,56.25
2018-05-02T09:50:04.044Z,56.25
2018-05-02T09:51:04.069Z,50.63
2018-05-02T09:52:04.108Z,50.63
2018-05-02T09:53:04.020Z,45.00
2018-05-02T09:54:04.013Z,50.63
2018-05-02T09:55:04.010Z,50.63
2018-05-02T09:56:04.000Z,50.63
2018-05-02T09:57:03.989Z,50.63
2018-05-02T09:58:04.064Z,56.25
2018-05-02T09:59:03.975Z,56.25
2018-05-02T10:00:03.968Z,56.25
2018-05-02T10:01:03.961Z,61.88
2018-05-02T10:02:03.956Z,56.25
2018-05-02T10:03:03.946Z,61.88
2018-05-02T10:04:03.941Z,61.88
2018-05-02T10:05:03.932Z,73.13
2018-05-02T10:06:03.929Z,73.13
2018-05-02T10:07:03.938Z,61.88
2018-05-02T10:08:03.914Z,56.25
2018-05-02T10:09:03.903Z,56.25
2018-05-02T10:10:03.900Z,50.63
2018-05-02T10:11:03.887Z,50.63
2018-05-02T10:12:03.882Z,56.25
2018-05-02T10:13:03.874Z,67.50
2018-05-02T10:14:03.884Z,78.75
2018-05-02T10:15:03.865Z,56.25
2018-05-02T10:16:03.855Z,61.88
2018-05-02T10:17:03.845Z,61.88
2018-05-02T10:18:03.839Z,61.88
2018-05-02T10:19:03.829Z,67.50
2018-05-02T10:20:03.823Z,67.50
2018-05-02T10:21:03.817Z,61.88
2018-05-02T10:22:03.819Z,56.25
2018-05-02T10:23:03.803Z,56.25
2018-05-02T10:24:03.799Z,56.25
2018-05-02T10:25:03.787Z,50.63
2018-05-02T10:26:03.784Z,56.25
2018-05-02T10:27:03.774Z,50.63
2018-05-02T10:28:03.767Z,50.63
2018-05-02T10:29:03.759Z,50.63
2018-05-02T10:30:03.760Z,50.63
2018-05-02T10:31:03.743Z,45.00
2018-05-02T10:32:03.738Z,45.00
2018-05-02T10:33:03.728Z,50.63
2018-05-02T10:34:03.722Z,50.63
2018-05-02T10:35:03.723Z,50.63
2018-05-02T10:36:03.707Z,50.63
2018-05-02T10:37:03.700Z,56.25
2018-05-02T10:38:03.699Z,56.25
2018-05-02T10:39:03.685Z,61.88
2018-05-02T10:40:03.678Z,56.25
2018-05-02T10:41:03.671Z,67.50
2018-05-02T10:42:03.671Z,61.88
2018-05-02T10:43:03.666Z,56.25
2018-05-02T10:44:03.649Z,56.25
2018-05-02T10:45:03.644Z,56.25
2018-05-02T10:46:03.639Z,56.25
2018-05-02T10:47:03.629Z,56.25
2018-05-02T10:48:03.622Z,50.63
2018-05-02T10:49:03.646Z,50.63
2018-05-02T10:50:03.609Z,50.63
2018-05-02T10:51:03.600Z,50.63
2018-05-02T10:52:03.593Z,50.63
2018-05-02T10:53:03.587Z,56.25
2018-05-02T10:54:03.579Z,56.25
2018-05-02T10:55:03.572Z,56.25
2018-05-02T10:56:03.632Z,61.88
2018-05-02T10:57:03.557Z,61.88
2018-05-02T10:58:03.552Z,61.88
2018-05-02T10:59:03.541Z,61.88
2018-05-02T11:00:03.538Z,61.88
2018-05-02T11:01:03.531Z,61.88
2018-05-02T11:02:03.523Z,61.88
2018-05-02T11:03:03.513Z,61.88
2018-05-02T11:04:03.508Z,61.88
2018-05-02T11:05:03.501Z,61.88
2018-05-02T11:06:03.493Z,61.88
2018-05-02T11:07:03.486Z,61.88
2018-05-02T11:08:03.481Z,67.50
2018-05-02T11:09:03.475Z,67.50
2018-05-02T11:10:03.465Z,67.50
2018-05-02T11:11:03.460Z,73.13
2018-05-02T11:12:03.450Z,67.50
2018-05-02T11:13:03.448Z,67.50
2018-05-02T11:14:03.435Z,67.50
2018-05-02T11:15:03.429Z,67.50
2018-05-02T11:16:03.426Z,67.50
2018-05-02T11:17:03.414Z,67.50
2018-05-02T11:18:03.413Z,73.13
2018-05-02T11:19:03.401Z,73.13
2018-05-02T11:20:03.393Z,78.75
2018-05-02T11:21:03.387Z,73.13
2018-05-02T11:22:03.435Z,73.13
2018-05-02T11:23:03.372Z,73.13
2018-05-02T11:24:03.369Z,67.50
2018-05-02T11:25:03.358Z,67.50
2018-05-02T11:26:03.352Z,67.50
2018-05-02T11:27:03.343Z,61.88
2018-05-02T11:28:03.338Z,61.88
2018-05-02T11:29:03.331Z,67.50
2018-05-02T11:30:03.327Z,67.50
2018-05-02T11:31:03.315Z,67.50
2018-05-02T11:32:03.310Z,61.88
2018-05-02T11:33:03.300Z,61.88
2018-05-02T11:34:03.288Z,61.88
2018-05-02T11:35:03.289Z,67.50
2018-05-02T11:36:03.281Z,61.88
2018-05-02T11:37:03.273Z,61.88
2018-05-02T11:38:03.263Z,61.88
2018-05-02T11:39:03.263Z,61.88
2018-05-02T11:40:03.250Z,61.88
2018-05-02T11:41:03.246Z,61.88
2018-05-02T11:42:03.238Z,56.25
2018-05-02T11:43:03.236Z,56.25
2018-05-02T11:44:03.224Z,56.25
2018-05-02T11:45:03.217Z,56.25
2018-05-02T11:46:03.210Z,56.25
2018-05-02T11:47:03.208Z,56.25
2018-05-02T11:48:03.195Z,56.25
2018-05-02T11:49:03.190Z,56.25
2018-05-02T11:50:03.185Z,61.88
2018-05-02T11:51:03.174Z,61.88
2018-05-02T11:52:03.167Z,56.25
2018-05-02T11:53:03.161Z,56.25
2018-05-02T11:54:03.153Z,56.25
2018-05-02T11:55:03.148Z,56.25
2018-05-02T11:56:03.136Z,56.25
2018-05-02T11:57:03.136Z,56.25
2018-05-02T11:58:03.128Z,56.25
2018-05-02T11:59:03.118Z,50.63
2018-05-02T12:00:03.111Z,50.63
2018-05-02T12:01:03.103Z,50.63
2018-05-02T12:02:03.099Z,50.63
2018-05-02T12:03:03.091Z,50.63
2018-05-02T12:04:03.088Z,50.63
2018-05-02T12:05:03.077Z,50.63
2018-05-02T12:06:03.090Z,50.63
2018-05-02T12:07:03.068Z,50.63
2018-05-02T12:08:03.052Z,50.63
2018-05-02T12:09:03.049Z,45.00
2018-05-02T12:10:03.043Z,45.00
2018-05-02T12:11:03.045Z,45.00
2018-05-02T12:12:03.025Z,45.00
2018-05-02T12:13:03.019Z,45.00
2018-05-02T12:14:03.012Z,45.00
2018-05-02T12:15:03.005Z,45.00
2018-05-02T12:16:03.015Z,45.00
2018-05-02T12:17:02.992Z,45.00
2018-05-02T12:18:02.984Z,45.00
2018-05-02T12:19:02.980Z,45.00
2018-05-02T12:20:02.972Z,45.00
2018-05-02T12:21:02.967Z,45.00
2018-05-02T12:22:02.956Z,45.00
2018-05-02T12:23:02.949Z,45.00
2018-05-02T12:24:02.942Z,45.00
2018-05-02T12:25:02.943Z,45.00
2018-05-02T12:26:02.928Z,50.63
2018-05-02T12:27:02.918Z,50.63
2018-05-02T12:28:02.916Z,50.63
2018-05-02T12:29:02.905Z,50.63
2018-05-02T12:30:02.899Z,50.63
2018-05-02T12:31:02.893Z,50.63
2018-05-02T12:32:02.884Z,50.63
2018-05-02T12:33:02.877Z,50.63
2018-05-02T12:34:02.866Z,50.63
2018-05-02T12:35:02.864Z,50.63
2018-05-02T12:36:02.853Z,50.63
2018-05-02T12:37:02.849Z,50.63
2018-05-02T12:38:02.849Z,50.63
2018-05-02T12:39:02.848Z,50.63
2018-05-02T12:40:02.828Z,45.00
2018-05-02T12:41:02.821Z,45.00
2018-05-02T12:42:02.819Z,45.00
2018-05-02T12:43:02.809Z,45.00
2018-05-02T12:44:02.799Z,45.00
2018-05-02T12:45:02.800Z,45.00
2018-05-02T12:46:02.789Z,45.00
2018-05-02T12:47:02.780Z,45.00
2018-05-02T12:48:02.774Z,45.00
2018-05-02T12:49:02.761Z,45.00
2018-05-02T12:50:02.762Z,45.00
2018-05-02T12:51:02.750Z,45.00
2018-05-02T12:52:02.747Z,45.00
2018-05-02T12:53:02.737Z,45.00
2018-05-02T12:54:02.732Z,45.00
2018-05-02T12:55:02.721Z,45.00
2018-05-02T12:56:02.731Z,45.00
2018-05-02T12:57:02.708Z,45.00
2018-05-02T12:58:02.706Z,45.00
2018-05-02T12:59:02.703Z,45.00
2018-05-02T13:00:02.689Z,45.00
2018-05-02T13:01:02.679Z,45.00
2018-05-02T13:02:02.674Z,45.00